sensor_id;sensor_type;location;lat;lon;timestamp;P1;durP1;ratioP1;P2;durP2;ratioP2
62580;SDS011;48640;48.770;9.148;2023-04-08T00:00:20;14.35;;;10.77;;
62580;SDS011;48640;48.770;9.148;2023-04-08T00:02:47;15.18;;;11.25;;
62580;SDS011;48640;48.770;9.148;2023-04-08T00:05:14;14.73;;;10.13;;
62580;SDS011;48640;48.770;9.148;2023-04-08T00:07:42;15.88;;;10.10;;
62580;SDS011;48640;48.770;9.148;2023-04-08T00:10:10;16.05;;;10.18;;
62580;SDS011;48640;48.770;9.148;2023-04-08T00:12:36;12.82;;;9.73;;
62580;SDS011;48640;48.770;9.148;2023-04-08T00:15:04;14.52;;;11.20;;
62580;SDS011;48640;48.770;9.148;2023-04-08T00:17:31;13.65;;;10.15;;
62580;SDS011;48640;48.770;9.148;2023-04-08T00:19:58;14.77;;;11.05;;
62580;SDS011;48640;48.770;9.148;2023-04-08T00:22:25;14.85;;;10.55;;
62580;SDS011;48640;48.770;9.148;2023-04-08T00:24:53;14.27;;;9.38;;
62580;SDS011;48640;48.770;9.148;2023-04-08T00:27:20;14.52;;;11.10;;
62580;SDS011;48640;48.770;9.148;2023-04-08T00:29:49;14.57;;;10.00;;
62580;SDS011;48640;48.770;9.148;2023-04-08T00:32:16;13.95;;;10.45;;
62580;SDS011;48640;48.770;9.148;2023-04-08T00:34:43;13.60;;;9.93;;
62580;SDS011;48640;48.770;9.148;2023-04-08T00:37:10;13.80;;;9.13;;
62580;SDS011;48640;48.770;9.148;2023-04-08T00:39:36;15.52;;;10.48;;
62580;SDS011;48640;48.770;9.148;2023-04-08T00:42:05;15.27;;;10.30;;
62580;SDS011;48640;48.770;9.148;2023-04-08T00:44:32;12.88;;;9.43;;
62580;SDS011;48640;48.770;9.148;2023-04-08T00:46:58;16.50;;;10.77;;
62580;SDS011;48640;48.770;9.148;2023-04-08T00:49:25;15.27;;;11.05;;
62580;SDS011;48640;48.770;9.148;2023-04-08T00:51:52;13.23;;;9.75;;
62580;SDS011;48640;48.770;9.148;2023-04-08T00:54:19;13.38;;;9.98;;
62580;SDS011;48640;48.770;9.148;2023-04-08T00:56:46;13.95;;;10.18;;
62580;SDS011;48640;48.770;9.148;2023-04-08T00:59:16;13.95;;;10.15;;
62580;SDS011;48640;48.770;9.148;2023-04-08T01:01:45;13.30;;;10.07;;
62580;SDS011;48640;48.770;9.148;2023-04-08T01:04:19;14.07;;;9.93;;
62580;SDS011;48640;48.770;9.148;2023-04-08T01:06:55;12.90;;;9.98;;
62580;SDS011;48640;48.770;9.148;2023-04-08T01:09:27;13.52;;;9.95;;
62580;SDS011;48640;48.770;9.148;2023-04-08T01:11:57;15.38;;;9.45;;
62580;SDS011;48640;48.770;9.148;2023-04-08T01:14:28;12.77;;;9.68;;
62580;SDS011;48640;48.770;9.148;2023-04-08T01:19:26;13.48;;;9.38;;
62580;SDS011;48640;48.770;9.148;2023-04-08T01:24:27;13.85;;;10.45;;
62580;SDS011;48640;48.770;9.148;2023-04-08T01:27:00;15.13;;;10.90;;
62580;SDS011;48640;48.770;9.148;2023-04-08T01:29:28;14.77;;;11.02;;
62580;SDS011;48640;48.770;9.148;2023-04-08T01:31:56;13.38;;;9.98;;
62580;SDS011;48640;48.770;9.148;2023-04-08T01:34:26;13.85;;;9.82;;
62580;SDS011;48640;48.770;9.148;2023-04-08T01:36:54;14.15;;;10.70;;
62580;SDS011;48640;48.770;9.148;2023-04-08T01:39:22;13.77;;;10.45;;
62580;SDS011;48640;48.770;9.148;2023-04-08T01:41:50;13.27;;;10.20;;
62580;SDS011;48640;48.770;9.148;2023-04-08T01:44:20;13.80;;;9.88;;
62580;SDS011;48640;48.770;9.148;2023-04-08T01:46:49;13.65;;;10.07;;
62580;SDS011;48640;48.770;9.148;2023-04-08T01:49:18;15.60;;;9.93;;
62580;SDS011;48640;48.770;9.148;2023-04-08T01:51:45;14.70;;;11.43;;
62580;SDS011;48640;48.770;9.148;2023-04-08T01:54:13;13.73;;;10.77;;
62580;SDS011;48640;48.770;9.148;2023-04-08T01:56:40;15.30;;;10.73;;
62580;SDS011;48640;48.770;9.148;2023-04-08T01:59:10;13.60;;;9.70;;
62580;SDS011;48640;48.770;9.148;2023-04-08T02:01:41;15.50;;;11.60;;
62580;SDS011;48640;48.770;9.148;2023-04-08T02:04:09;15.00;;;11.27;;
62580;SDS011;48640;48.770;9.148;2023-04-08T02:06:37;12.45;;;9.40;;
62580;SDS011;48640;48.770;9.148;2023-04-08T02:09:04;14.55;;;10.60;;
62580;SDS011;48640;48.770;9.148;2023-04-08T02:11:31;14.20;;;10.20;;
62580;SDS011;48640;48.770;9.148;2023-04-08T02:13:58;14.88;;;11.23;;
62580;SDS011;48640;48.770;9.148;2023-04-08T02:16:27;16.05;;;11.43;;
62580;SDS011;48640;48.770;9.148;2023-04-08T02:19:01;15.52;;;11.32;;
62580;SDS011;48640;48.770;9.148;2023-04-08T02:21:35;15.43;;;10.38;;
62580;SDS011;48640;48.770;9.148;2023-04-08T02:24:08;16.30;;;11.13;;
62580;SDS011;48640;48.770;9.148;2023-04-08T02:26:37;17.48;;;11.77;;
62580;SDS011;48640;48.770;9.148;2023-04-08T02:31:37;16.15;;;11.38;;
62580;SDS011;48640;48.770;9.148;2023-04-08T02:34:08;15.03;;;11.53;;
62580;SDS011;48640;48.770;9.148;2023-04-08T02:36:36;17.63;;;12.88;;
62580;SDS011;48640;48.770;9.148;2023-04-08T02:39:05;18.08;;;12.75;;
62580;SDS011;48640;48.770;9.148;2023-04-08T02:41:32;20.75;;;13.35;;
62580;SDS011;48640;48.770;9.148;2023-04-08T02:43:59;17.10;;;11.27;;
62580;SDS011;48640;48.770;9.148;2023-04-08T02:46:26;17.42;;;12.20;;
62580;SDS011;48640;48.770;9.148;2023-04-08T02:48:53;15.23;;;11.80;;
62580;SDS011;48640;48.770;9.148;2023-04-08T02:51:21;17.10;;;11.95;;
62580;SDS011;48640;48.770;9.148;2023-04-08T02:53:48;18.02;;;12.15;;
62580;SDS011;48640;48.770;9.148;2023-04-08T02:56:14;17.65;;;12.70;;
62580;SDS011;48640;48.770;9.148;2023-04-08T02:58:41;18.27;;;12.60;;
62580;SDS011;48640;48.770;9.148;2023-04-08T03:01:08;18.13;;;12.55;;
62580;SDS011;48640;48.770;9.148;2023-04-08T03:03:35;23.17;;;13.70;;
62580;SDS011;48640;48.770;9.148;2023-04-08T03:06:02;19.70;;;12.75;;
62580;SDS011;48640;48.770;9.148;2023-04-08T03:08:30;21.30;;;13.15;;
62580;SDS011;48640;48.770;9.148;2023-04-08T03:10:57;18.85;;;12.27;;
62580;SDS011;48640;48.770;9.148;2023-04-08T03:13:24;19.88;;;12.65;;
62580;SDS011;48640;48.770;9.148;2023-04-08T03:15:51;20.77;;;13.65;;
62580;SDS011;48640;48.770;9.148;2023-04-08T03:18:18;18.27;;;12.07;;
62580;SDS011;48640;48.770;9.148;2023-04-08T03:20:45;16.13;;;11.02;;
62580;SDS011;48640;48.770;9.148;2023-04-08T03:23:12;17.08;;;11.77;;
62580;SDS011;48640;48.770;9.148;2023-04-08T03:25:40;18.02;;;11.70;;
62580;SDS011;48640;48.770;9.148;2023-04-08T03:28:07;18.08;;;12.05;;
62580;SDS011;48640;48.770;9.148;2023-04-08T03:30:34;16.42;;;11.05;;
62580;SDS011;48640;48.770;9.148;2023-04-08T03:33:01;16.25;;;11.10;;
62580;SDS011;48640;48.770;9.148;2023-04-08T03:35:31;18.67;;;11.98;;
62580;SDS011;48640;48.770;9.148;2023-04-08T03:37:58;15.88;;;10.75;;
62580;SDS011;48640;48.770;9.148;2023-04-08T03:40:25;17.33;;;10.30;;
62580;SDS011;48640;48.770;9.148;2023-04-08T03:42:54;17.00;;;10.63;;
62580;SDS011;48640;48.770;9.148;2023-04-08T03:45:20;17.70;;;11.52;;
62580;SDS011;48640;48.770;9.148;2023-04-08T03:47:47;15.23;;;10.73;;
62580;SDS011;48640;48.770;9.148;2023-04-08T03:50:14;14.40;;;9.73;;
62580;SDS011;48640;48.770;9.148;2023-04-08T03:52:41;15.18;;;10.45;;
62580;SDS011;48640;48.770;9.148;2023-04-08T03:55:08;15.45;;;10.30;;
62580;SDS011;48640;48.770;9.148;2023-04-08T03:57:35;14.43;;;9.88;;
62580;SDS011;48640;48.770;9.148;2023-04-08T04:00:03;17.00;;;11.50;;
62580;SDS011;48640;48.770;9.148;2023-04-08T04:02:31;16.98;;;11.00;;
62580;SDS011;48640;48.770;9.148;2023-04-08T04:04:58;16.33;;;10.90;;
62580;SDS011;48640;48.770;9.148;2023-04-08T04:07:24;15.80;;;10.55;;
62580;SDS011;48640;48.770;9.148;2023-04-08T04:09:51;16.70;;;10.55;;
62580;SDS011;48640;48.770;9.148;2023-04-08T04:12:20;15.67;;;10.60;;
62580;SDS011;48640;48.770;9.148;2023-04-08T04:14:47;16.13;;;9.93;;
62580;SDS011;48640;48.770;9.148;2023-04-08T04:17:16;15.82;;;10.80;;
62580;SDS011;48640;48.770;9.148;2023-04-08T04:19:42;16.95;;;10.45;;
62580;SDS011;48640;48.770;9.148;2023-04-08T04:22:09;17.95;;;10.70;;
62580;SDS011;48640;48.770;9.148;2023-04-08T04:24:36;17.25;;;10.98;;
62580;SDS011;48640;48.770;9.148;2023-04-08T04:27:03;21.27;;;12.40;;
62580;SDS011;48640;48.770;9.148;2023-04-08T04:29:30;16.80;;;11.90;;
62580;SDS011;48640;48.770;9.148;2023-04-08T04:31:57;19.20;;;11.38;;
62580;SDS011;48640;48.770;9.148;2023-04-08T04:34:25;18.63;;;11.68;;
62580;SDS011;48640;48.770;9.148;2023-04-08T04:36:52;17.95;;;12.50;;
62580;SDS011;48640;48.770;9.148;2023-04-08T04:39:18;17.40;;;11.65;;
62580;SDS011;48640;48.770;9.148;2023-04-08T04:41:45;17.55;;;11.07;;
62580;SDS011;48640;48.770;9.148;2023-04-08T04:44:13;18.77;;;12.30;;
62580;SDS011;48640;48.770;9.148;2023-04-08T04:46:40;17.63;;;12.30;;
62580;SDS011;48640;48.770;9.148;2023-04-08T04:49:07;20.20;;;13.60;;
62580;SDS011;48640;48.770;9.148;2023-04-08T04:51:35;23.10;;;13.60;;
62580;SDS011;48640;48.770;9.148;2023-04-08T04:54:02;21.17;;;14.27;;
62580;SDS011;48640;48.770;9.148;2023-04-08T04:56:29;20.90;;;13.95;;
62580;SDS011;48640;48.770;9.148;2023-04-08T04:58:55;19.77;;;13.57;;
62580;SDS011;48640;48.770;9.148;2023-04-08T05:01:22;22.10;;;13.98;;
62580;SDS011;48640;48.770;9.148;2023-04-08T05:03:49;20.27;;;14.07;;
62580;SDS011;48640;48.770;9.148;2023-04-08T05:06:16;19.25;;;13.02;;
62580;SDS011;48640;48.770;9.148;2023-04-08T05:08:44;20.38;;;14.07;;
62580;SDS011;48640;48.770;9.148;2023-04-08T05:11:11;21.00;;;14.50;;
62580;SDS011;48640;48.770;9.148;2023-04-08T05:13:38;20.13;;;14.05;;
62580;SDS011;48640;48.770;9.148;2023-04-08T05:16:05;21.25;;;14.57;;
62580;SDS011;48640;48.770;9.148;2023-04-08T05:18:32;20.02;;;13.70;;
62580;SDS011;48640;48.770;9.148;2023-04-08T05:20:59;18.05;;;13.77;;
62580;SDS011;48640;48.770;9.148;2023-04-08T05:23:26;22.80;;;14.57;;
62580;SDS011;48640;48.770;9.148;2023-04-08T05:25:54;19.75;;;13.80;;
62580;SDS011;48640;48.770;9.148;2023-04-08T05:28:21;20.25;;;13.23;;
62580;SDS011;48640;48.770;9.148;2023-04-08T05:30:48;20.02;;;13.77;;
62580;SDS011;48640;48.770;9.148;2023-04-08T05:33:16;20.05;;;14.43;;
62580;SDS011;48640;48.770;9.148;2023-04-08T05:35:43;21.48;;;14.23;;
62580;SDS011;48640;48.770;9.148;2023-04-08T05:38:09;21.08;;;14.48;;
62580;SDS011;48640;48.770;9.148;2023-04-08T05:40:36;21.25;;;13.60;;
62580;SDS011;48640;48.770;9.148;2023-04-08T05:43:04;19.83;;;13.85;;
62580;SDS011;48640;48.770;9.148;2023-04-08T05:45:31;22.38;;;14.40;;
62580;SDS011;48640;48.770;9.148;2023-04-08T05:47:58;19.55;;;15.15;;
62580;SDS011;48640;48.770;9.148;2023-04-08T05:50:25;20.58;;;13.52;;
62580;SDS011;48640;48.770;9.148;2023-04-08T05:52:52;17.75;;;12.40;;
62580;SDS011;48640;48.770;9.148;2023-04-08T05:55:19;18.80;;;13.43;;
62580;SDS011;48640;48.770;9.148;2023-04-08T05:57:46;18.40;;;13.63;;
62580;SDS011;48640;48.770;9.148;2023-04-08T06:00:14;19.60;;;14.30;;
62580;SDS011;48640;48.770;9.148;2023-04-08T06:02:41;19.10;;;13.30;;
62580;SDS011;48640;48.770;9.148;2023-04-08T06:05:08;19.98;;;14.35;;
62580;SDS011;48640;48.770;9.148;2023-04-08T06:07:35;20.45;;;14.00;;
62580;SDS011;48640;48.770;9.148;2023-04-08T06:10:02;19.88;;;13.93;;
62580;SDS011;48640;48.770;9.148;2023-04-08T06:12:33;20.05;;;13.98;;
62580;SDS011;48640;48.770;9.148;2023-04-08T06:15:00;18.23;;;12.98;;
62580;SDS011;48640;48.770;9.148;2023-04-08T06:17:29;17.88;;;13.77;;
62580;SDS011;48640;48.770;9.148;2023-04-08T06:19:56;20.73;;;15.10;;
62580;SDS011;48640;48.770;9.148;2023-04-08T06:22:23;18.63;;;13.10;;
62580;SDS011;48640;48.770;9.148;2023-04-08T06:24:50;22.33;;;14.90;;
62580;SDS011;48640;48.770;9.148;2023-04-08T06:27:17;19.48;;;14.18;;
62580;SDS011;48640;48.770;9.148;2023-04-08T06:29:44;19.45;;;13.90;;
62580;SDS011;48640;48.770;9.148;2023-04-08T06:32:11;18.42;;;13.55;;
62580;SDS011;48640;48.770;9.148;2023-04-08T06:34:39;19.48;;;13.50;;
62580;SDS011;48640;48.770;9.148;2023-04-08T06:37:06;22.40;;;14.07;;
62580;SDS011;48640;48.770;9.148;2023-04-08T06:39:33;17.50;;;13.75;;
62580;SDS011;48640;48.770;9.148;2023-04-08T06:41:59;18.98;;;13.02;;
62580;SDS011;48640;48.770;9.148;2023-04-08T06:44:26;19.90;;;12.75;;
62580;SDS011;48640;48.770;9.148;2023-04-08T06:46:53;17.67;;;12.25;;
62580;SDS011;48640;48.770;9.148;2023-04-08T06:49:20;17.92;;;12.18;;
62580;SDS011;48640;48.770;9.148;2023-04-08T06:51:48;17.60;;;12.10;;
62580;SDS011;48640;48.770;9.148;2023-04-08T06:54:16;16.67;;;12.70;;
62580;SDS011;48640;48.770;9.148;2023-04-08T06:56:42;15.15;;;11.13;;
62580;SDS011;48640;48.770;9.148;2023-04-08T06:59:09;15.38;;;10.63;;
62580;SDS011;48640;48.770;9.148;2023-04-08T07:01:36;16.40;;;11.25;;
62580;SDS011;48640;48.770;9.148;2023-04-08T07:04:03;16.23;;;11.20;;
62580;SDS011;48640;48.770;9.148;2023-04-08T07:06:29;18.17;;;13.25;;
62580;SDS011;48640;48.770;9.148;2023-04-08T07:08:58;18.83;;;13.75;;
62580;SDS011;48640;48.770;9.148;2023-04-08T07:11:24;17.15;;;11.93;;
62580;SDS011;48640;48.770;9.148;2023-04-08T07:13:51;18.48;;;11.57;;
62580;SDS011;48640;48.770;9.148;2023-04-08T07:16:18;16.42;;;11.93;;
62580;SDS011;48640;48.770;9.148;2023-04-08T07:18:45;16.98;;;12.00;;
62580;SDS011;48640;48.770;9.148;2023-04-08T07:21:12;19.25;;;12.40;;
62580;SDS011;48640;48.770;9.148;2023-04-08T07:23:38;15.85;;;11.55;;
62580;SDS011;48640;48.770;9.148;2023-04-08T07:26:07;18.88;;;13.20;;
62580;SDS011;48640;48.770;9.148;2023-04-08T07:28:33;15.90;;;11.60;;
62580;SDS011;48640;48.770;9.148;2023-04-08T07:31:10;17.55;;;12.05;;
62580;SDS011;48640;48.770;9.148;2023-04-08T07:33:38;16.08;;;11.32;;
62580;SDS011;48640;48.770;9.148;2023-04-08T07:36:05;15.10;;;10.77;;
62580;SDS011;48640;48.770;9.148;2023-04-08T07:38:32;15.80;;;10.75;;
62580;SDS011;48640;48.770;9.148;2023-04-08T07:40:59;18.70;;;10.38;;
62580;SDS011;48640;48.770;9.148;2023-04-08T07:43:27;15.40;;;10.50;;
62580;SDS011;48640;48.770;9.148;2023-04-08T07:46:00;16.15;;;10.75;;
62580;SDS011;48640;48.770;9.148;2023-04-08T07:48:28;14.43;;;9.98;;
62580;SDS011;48640;48.770;9.148;2023-04-08T07:50:55;13.95;;;9.85;;
62580;SDS011;48640;48.770;9.148;2023-04-08T07:53:22;14.05;;;10.02;;
62580;SDS011;48640;48.770;9.148;2023-04-08T07:55:50;12.88;;;9.73;;
62580;SDS011;48640;48.770;9.148;2023-04-08T07:58:17;14.60;;;10.93;;
62580;SDS011;48640;48.770;9.148;2023-04-08T08:00:45;13.70;;;10.27;;
62580;SDS011;48640;48.770;9.148;2023-04-08T08:03:12;14.43;;;9.80;;
62580;SDS011;48640;48.770;9.148;2023-04-08T08:05:39;14.05;;;10.82;;
62580;SDS011;48640;48.770;9.148;2023-04-08T08:08:06;12.40;;;9.98;;
62580;SDS011;48640;48.770;9.148;2023-04-08T08:10:35;12.87;;;9.77;;
62580;SDS011;48640;48.770;9.148;2023-04-08T08:13:02;13.73;;;10.18;;
62580;SDS011;48640;48.770;9.148;2023-04-08T08:15:29;13.23;;;9.55;;
62580;SDS011;48640;48.770;9.148;2023-04-08T08:17:57;13.73;;;10.68;;
62580;SDS011;48640;48.770;9.148;2023-04-08T08:20:24;11.88;;;9.50;;
62580;SDS011;48640;48.770;9.148;2023-04-08T08:22:51;13.55;;;9.63;;
62580;SDS011;48640;48.770;9.148;2023-04-08T08:25:18;12.95;;;10.38;;
62580;SDS011;48640;48.770;9.148;2023-04-08T08:27:45;11.90;;;9.10;;
62580;SDS011;48640;48.770;9.148;2023-04-08T08:30:13;13.95;;;10.73;;
62580;SDS011;48640;48.770;9.148;2023-04-08T08:32:40;13.70;;;10.13;;
62580;SDS011;48640;48.770;9.148;2023-04-08T08:35:08;14.00;;;9.73;;
62580;SDS011;48640;48.770;9.148;2023-04-08T08:37:35;12.88;;;9.90;;
62580;SDS011;48640;48.770;9.148;2023-04-08T08:40:02;14.00;;;10.45;;
62580;SDS011;48640;48.770;9.148;2023-04-08T08:42:29;12.45;;;10.05;;
62580;SDS011;48640;48.770;9.148;2023-04-08T08:44:56;13.15;;;10.68;;
62580;SDS011;48640;48.770;9.148;2023-04-08T08:47:26;14.75;;;10.07;;
62580;SDS011;48640;48.770;9.148;2023-04-08T08:49:53;12.85;;;10.40;;
62580;SDS011;48640;48.770;9.148;2023-04-08T08:52:21;12.57;;;10.10;;
62580;SDS011;48640;48.770;9.148;2023-04-08T08:54:49;12.45;;;8.95;;
62580;SDS011;48640;48.770;9.148;2023-04-08T08:57:22;13.30;;;10.85;;
62580;SDS011;48640;48.770;9.148;2023-04-08T08:59:49;13.10;;;9.32;;
62580;SDS011;48640;48.770;9.148;2023-04-08T09:02:23;13.27;;;9.95;;
62580;SDS011;48640;48.770;9.148;2023-04-08T09:04:55;11.43;;;9.40;;
62580;SDS011;48640;48.770;9.148;2023-04-08T09:07:24;12.07;;;9.75;;
62580;SDS011;48640;48.770;9.148;2023-04-08T09:09:53;12.98;;;9.82;;
62580;SDS011;48640;48.770;9.148;2023-04-08T09:12:21;12.55;;;10.05;;
62580;SDS011;48640;48.770;9.148;2023-04-08T09:14:48;11.55;;;9.82;;
62580;SDS011;48640;48.770;9.148;2023-04-08T09:17:15;12.23;;;10.07;;
62580;SDS011;48640;48.770;9.148;2023-04-08T09:20:02;13.13;;;10.75;;
62580;SDS011;48640;48.770;9.148;2023-04-08T09:22:35;13.48;;;10.10;;
62580;SDS011;48640;48.770;9.148;2023-04-08T09:25:24;11.65;;;9.68;;
62580;SDS011;48640;48.770;9.148;2023-04-08T09:27:52;14.70;;;10.55;;
62580;SDS011;48640;48.770;9.148;2023-04-08T09:30:20;12.57;;;9.95;;
62580;SDS011;48640;48.770;9.148;2023-04-08T09:32:48;13.10;;;9.60;;
62580;SDS011;48640;48.770;9.148;2023-04-08T09:35:16;12.38;;;9.55;;
62580;SDS011;48640;48.770;9.148;2023-04-08T09:37:45;12.18;;;9.90;;
62580;SDS011;48640;48.770;9.148;2023-04-08T09:40:13;10.95;;;9.50;;
62580;SDS011;48640;48.770;9.148;2023-04-08T09:42:43;12.68;;;9.70;;
62580;SDS011;48640;48.770;9.148;2023-04-08T09:47:41;13.00;;;9.88;;
62580;SDS011;48640;48.770;9.148;2023-04-08T09:50:17;13.05;;;10.40;;
62580;SDS011;48640;48.770;9.148;2023-04-08T09:52:50;11.98;;;9.75;;
62580;SDS011;48640;48.770;9.148;2023-04-08T09:55:22;11.13;;;9.88;;
62580;SDS011;48640;48.770;9.148;2023-04-08T09:57:54;10.23;;;9.20;;
62580;SDS011;48640;48.770;9.148;2023-04-08T10:00:27;10.32;;;8.88;;
62580;SDS011;48640;48.770;9.148;2023-04-08T10:03:01;12.07;;;9.75;;
62580;SDS011;48640;48.770;9.148;2023-04-08T10:05:35;11.57;;;9.65;;
62580;SDS011;48640;48.770;9.148;2023-04-08T10:08:05;11.13;;;9.43;;
62580;SDS011;48640;48.770;9.148;2023-04-08T10:10:32;13.77;;;10.77;;
62580;SDS011;48640;48.770;9.148;2023-04-08T10:13:01;11.00;;;9.00;;
62580;SDS011;48640;48.770;9.148;2023-04-08T10:15:29;12.35;;;10.05;;
62580;SDS011;48640;48.770;9.148;2023-04-08T10:21:01;11.98;;;8.93;;
62580;SDS011;48640;48.770;9.148;2023-04-08T10:26:30;12.13;;;10.05;;
62580;SDS011;48640;48.770;9.148;2023-04-08T10:31:57;11.85;;;9.65;;
62580;SDS011;48640;48.770;9.148;2023-04-08T10:34:25;14.35;;;10.02;;
62580;SDS011;48640;48.770;9.148;2023-04-08T10:36:53;15.88;;;10.35;;
62580;SDS011;48640;48.770;9.148;2023-04-08T10:39:24;14.48;;;9.82;;
62580;SDS011;48640;48.770;9.148;2023-04-08T10:41:52;13.38;;;9.73;;
62580;SDS011;48640;48.770;9.148;2023-04-08T10:44:20;12.02;;;10.05;;
62580;SDS011;48640;48.770;9.148;2023-04-08T10:46:49;12.63;;;8.93;;
62580;SDS011;48640;48.770;9.148;2023-04-08T10:49:17;13.68;;;9.82;;
62580;SDS011;48640;48.770;9.148;2023-04-08T10:51:44;10.80;;;9.55;;
62580;SDS011;48640;48.770;9.148;2023-04-08T10:54:12;13.75;;;9.20;;
62580;SDS011;48640;48.770;9.148;2023-04-08T10:59:31;12.85;;;9.60;;
62580;SDS011;48640;48.770;9.148;2023-04-08T11:02:12;11.00;;;8.73;;
62580;SDS011;48640;48.770;9.148;2023-04-08T11:04:42;14.98;;;10.38;;
62580;SDS011;48640;48.770;9.148;2023-04-08T11:07:09;11.48;;;9.65;;
62580;SDS011;48640;48.770;9.148;2023-04-08T11:09:36;11.65;;;9.68;;
62580;SDS011;48640;48.770;9.148;2023-04-08T11:12:10;12.07;;;9.23;;
62580;SDS011;48640;48.770;9.148;2023-04-08T11:14:41;13.82;;;10.13;;
62580;SDS011;48640;48.770;9.148;2023-04-08T11:17:27;12.80;;;10.10;;
62580;SDS011;48640;48.770;9.148;2023-04-08T11:19:54;13.80;;;10.52;;
62580;SDS011;48640;48.770;9.148;2023-04-08T11:22:26;13.23;;;9.95;;
62580;SDS011;48640;48.770;9.148;2023-04-08T11:24:55;12.35;;;10.07;;
62580;SDS011;48640;48.770;9.148;2023-04-08T11:27:23;11.00;;;9.18;;
62580;SDS011;48640;48.770;9.148;2023-04-08T11:29:51;13.75;;;10.23;;
62580;SDS011;48640;48.770;9.148;2023-04-08T11:32:20;13.57;;;9.73;;
62580;SDS011;48640;48.770;9.148;2023-04-08T11:34:47;13.75;;;11.20;;
62580;SDS011;48640;48.770;9.148;2023-04-08T11:37:15;14.77;;;10.43;;
62580;SDS011;48640;48.770;9.148;2023-04-08T11:39:42;13.45;;;9.90;;
62580;SDS011;48640;48.770;9.148;2023-04-08T11:42:09;11.75;;;9.23;;
62580;SDS011;48640;48.770;9.148;2023-04-08T11:44:53;11.98;;;9.57;;
62580;SDS011;48640;48.770;9.148;2023-04-08T11:47:20;14.65;;;11.25;;
62580;SDS011;48640;48.770;9.148;2023-04-08T11:49:47;12.70;;;9.63;;
62580;SDS011;48640;48.770;9.148;2023-04-08T11:52:14;12.68;;;10.30;;
62580;SDS011;48640;48.770;9.148;2023-04-08T11:54:41;13.63;;;10.25;;
62580;SDS011;48640;48.770;9.148;2023-04-08T11:57:08;11.93;;;9.73;;
62580;SDS011;48640;48.770;9.148;2023-04-08T11:59:37;11.20;;;9.45;;
62580;SDS011;48640;48.770;9.148;2023-04-08T12:02:03;11.20;;;9.65;;
62580;SDS011;48640;48.770;9.148;2023-04-08T12:04:31;12.32;;;9.55;;
62580;SDS011;48640;48.770;9.148;2023-04-08T12:06:59;10.77;;;9.20;;
62580;SDS011;48640;48.770;9.148;2023-04-08T12:09:26;12.63;;;9.55;;
62580;SDS011;48640;48.770;9.148;2023-04-08T12:11:52;13.63;;;10.63;;
62580;SDS011;48640;48.770;9.148;2023-04-08T12:14:20;12.20;;;10.07;;
62580;SDS011;48640;48.770;9.148;2023-04-08T12:16:50;12.85;;;10.30;;
62580;SDS011;48640;48.770;9.148;2023-04-08T12:19:17;11.55;;;9.77;;
62580;SDS011;48640;48.770;9.148;2023-04-08T12:21:44;11.70;;;9.60;;
62580;SDS011;48640;48.770;9.148;2023-04-08T12:24:11;12.95;;;10.57;;
62580;SDS011;48640;48.770;9.148;2023-04-08T12:26:38;12.68;;;9.70;;
62580;SDS011;48640;48.770;9.148;2023-04-08T12:29:04;13.35;;;9.77;;
62580;SDS011;48640;48.770;9.148;2023-04-08T12:31:33;13.57;;;10.38;;
62580;SDS011;48640;48.770;9.148;2023-04-08T12:34:01;12.23;;;9.55;;
62580;SDS011;48640;48.770;9.148;2023-04-08T12:36:28;11.23;;;9.10;;
62580;SDS011;48640;48.770;9.148;2023-04-08T12:38:55;12.07;;;9.02;;
62580;SDS011;48640;48.770;9.148;2023-04-08T12:41:22;12.05;;;9.85;;
62580;SDS011;48640;48.770;9.148;2023-04-08T12:43:49;15.05;;;9.75;;
62580;SDS011;48640;48.770;9.148;2023-04-08T12:46:15;11.25;;;9.35;;
62580;SDS011;48640;48.770;9.148;2023-04-08T12:48:42;12.25;;;10.07;;
62580;SDS011;48640;48.770;9.148;2023-04-08T12:51:11;13.98;;;10.15;;
62580;SDS011;48640;48.770;9.148;2023-04-08T12:53:38;13.65;;;10.38;;
62580;SDS011;48640;48.770;9.148;2023-04-08T12:56:05;9.60;;;8.57;;
62580;SDS011;48640;48.770;9.148;2023-04-08T12:58:32;10.48;;;8.65;;
62580;SDS011;48640;48.770;9.148;2023-04-08T13:00:59;11.25;;;9.50;;
62580;SDS011;48640;48.770;9.148;2023-04-08T13:03:25;12.52;;;9.63;;
62580;SDS011;48640;48.770;9.148;2023-04-08T13:05:55;12.70;;;9.10;;
62580;SDS011;48640;48.770;9.148;2023-04-08T13:08:24;12.43;;;9.82;;
62580;SDS011;48640;48.770;9.148;2023-04-08T13:10:51;12.80;;;9.60;;
62580;SDS011;48640;48.770;9.148;2023-04-08T13:13:18;11.60;;;9.73;;
62580;SDS011;48640;48.770;9.148;2023-04-08T13:15:45;13.73;;;9.68;;
62580;SDS011;48640;48.770;9.148;2023-04-08T13:18:12;14.40;;;9.75;;
62580;SDS011;48640;48.770;9.148;2023-04-08T13:20:39;11.23;;;9.30;;
62580;SDS011;48640;48.770;9.148;2023-04-08T13:23:06;12.68;;;9.85;;
62580;SDS011;48640;48.770;9.148;2023-04-08T13:25:34;11.07;;;9.43;;
62580;SDS011;48640;48.770;9.148;2023-04-08T13:28:01;12.35;;;8.77;;
62580;SDS011;48640;48.770;9.148;2023-04-08T13:30:28;14.52;;;10.65;;
62580;SDS011;48640;48.770;9.148;2023-04-08T13:32:55;11.85;;;9.40;;
62580;SDS011;48640;48.770;9.148;2023-04-08T13:35:22;14.98;;;9.70;;
62580;SDS011;48640;48.770;9.148;2023-04-08T13:37:49;11.52;;;9.20;;
62580;SDS011;48640;48.770;9.148;2023-04-08T13:40:16;11.27;;;9.48;;
62580;SDS011;48640;48.770;9.148;2023-04-08T13:42:44;13.32;;;9.27;;
62580;SDS011;48640;48.770;9.148;2023-04-08T13:45:12;11.38;;;9.27;;
62580;SDS011;48640;48.770;9.148;2023-04-08T13:47:39;11.68;;;10.05;;
62580;SDS011;48640;48.770;9.148;2023-04-08T13:50:07;12.70;;;9.27;;
62580;SDS011;48640;48.770;9.148;2023-04-08T13:52:55;10.50;;;8.27;;
62580;SDS011;48640;48.770;9.148;2023-04-08T13:55:24;10.70;;;8.68;;
62580;SDS011;48640;48.770;9.148;2023-04-08T13:57:53;10.20;;;8.55;;
62580;SDS011;48640;48.770;9.148;2023-04-08T14:00:20;12.15;;;9.60;;
62580;SDS011;48640;48.770;9.148;2023-04-08T14:02:47;12.18;;;9.75;;
62580;SDS011;48640;48.770;9.148;2023-04-08T14:05:16;12.02;;;9.02;;
62580;SDS011;48640;48.770;9.148;2023-04-08T14:07:43;11.52;;;9.23;;
62580;SDS011;48640;48.770;9.148;2023-04-08T14:10:10;10.38;;;8.23;;
62580;SDS011;48640;48.770;9.148;2023-04-08T14:12:39;11.95;;;9.07;;
62580;SDS011;48640;48.770;9.148;2023-04-08T14:15:13;11.13;;;8.82;;
62580;SDS011;48640;48.770;9.148;2023-04-08T14:17:40;10.95;;;9.32;;
62580;SDS011;48640;48.770;9.148;2023-04-08T14:22:37;11.65;;;9.00;;
62580;SDS011;48640;48.770;9.148;2023-04-08T14:25:04;10.98;;;8.68;;
62580;SDS011;48640;48.770;9.148;2023-04-08T14:27:31;11.07;;;9.77;;
62580;SDS011;48640;48.770;9.148;2023-04-08T14:30:00;13.80;;;9.13;;
62580;SDS011;48640;48.770;9.148;2023-04-08T14:32:28;12.18;;;9.00;;
62580;SDS011;48640;48.770;9.148;2023-04-08T14:35:00;11.82;;;9.55;;
62580;SDS011;48640;48.770;9.148;2023-04-08T14:37:27;11.60;;;9.13;;
62580;SDS011;48640;48.770;9.148;2023-04-08T14:39:58;12.52;;;10.38;;
62580;SDS011;48640;48.770;9.148;2023-04-08T14:42:24;10.15;;;9.02;;
62580;SDS011;48640;48.770;9.148;2023-04-08T14:45:04;11.02;;;9.27;;
62580;SDS011;48640;48.770;9.148;2023-04-08T14:47:36;11.85;;;8.95;;
62580;SDS011;48640;48.770;9.148;2023-04-08T14:50:03;9.63;;;8.63;;
62580;SDS011;48640;48.770;9.148;2023-04-08T14:52:48;12.95;;;9.20;;
62580;SDS011;48640;48.770;9.148;2023-04-08T14:55:15;13.73;;;12.20;;